createdAt,value
2023-04-14T00:01:38.990Z,53.89
2023-04-14T00:04:13.861Z,53.91
2023-04-14T00:06:42.262Z,53.91
2023-04-14T00:09:10.646Z,53.88
2023-04-14T00:11:39.017Z,54.01
2023-04-14T00:14:07.172Z,54.26
2023-04-14T00:16:36.980Z,54.25
2023-04-14T00:19:05.197Z,54.27
2023-04-14T00:21:33.362Z,54.42
2023-04-14T00:24:01.496Z,54.75
2023-04-14T00:26:29.741Z,54.85
2023-04-14T00:28:57.956Z,54.80
2023-04-14T00:31:26.414Z,54.83
2023-04-14T00:33:56.161Z,54.84
2023-04-14T00:36:24.586Z,54.84
2023-04-14T00:38:53.667Z,54.81
2023-04-14T00:41:21.831Z,54.98
2023-04-14T00:43:53.667Z,54.93
2023-04-14T00:46:22.876Z,55.20
2023-04-14T00:48:51.480Z,55.13
2023-04-14T00:51:21.112Z,55.07
2023-04-14T00:53:50.469Z,55.16
2023-04-14T00:56:18.730Z,55.10
2023-04-14T00:58:47.397Z,55.07
2023-04-14T01:01:16.768Z,55.18
2023-04-14T01:03:45.769Z,55.30
2023-04-14T01:06:14.063Z,55.49
2023-04-14T01:08:43.711Z,55.45
2023-04-14T01:11:22.903Z,55.18
2023-04-14T01:13:57.608Z,55.00
2023-04-14T01:16:31.300Z,54.87
2023-04-14T01:19:06.499Z,54.84
2023-04-14T01:21:39.860Z,54.86
2023-04-14T01:24:30.913Z,54.46
2023-04-14T01:27:06.992Z,54.72
2023-04-14T01:29:55.989Z,54.48
2023-04-14T01:32:28.335Z,54.71
2023-04-14T01:34:58.981Z,54.87
2023-04-14T01:37:31.369Z,54.91
2023-04-14T01:40:05.792Z,54.95
2023-04-14T01:42:37.639Z,54.94
2023-04-14T01:45:10.893Z,55.10
2023-04-14T01:47:43.736Z,55.13
2023-04-14T01:50:13.427Z,55.29
2023-04-14T01:52:44.097Z,55.32
2023-04-14T01:55:12.854Z,55.26
2023-04-14T01:57:45.209Z,55.32
2023-04-14T02:00:15.216Z,55.31
2023-04-14T02:02:46.608Z,55.29
2023-04-14T02:05:18.261Z,55.40
2023-04-14T02:07:48.663Z,55.55
2023-04-14T02:10:19.444Z,55.54
2023-04-14T02:12:48.991Z,55.62
2023-04-14T02:15:19.856Z,55.65
2023-04-14T02:17:51.567Z,55.66
2023-04-14T02:20:21.835Z,55.80
2023-04-14T02:22:49.909Z,55.84
2023-04-14T02:25:18.094Z,55.71
2023-04-14T02:27:51.092Z,55.56
2023-04-14T02:30:23.633Z,55.57
2023-04-14T02:32:58.454Z,55.58
2023-04-14T02:35:29.498Z,55.69
2023-04-14T02:38:06.525Z,55.50
2023-04-14T02:40:39.788Z,55.60
2023-04-14T02:43:13.671Z,55.55
2023-04-14T02:45:44.177Z,55.68
2023-04-14T02:48:17.325Z,55.45
2023-04-14T02:50:49.544Z,55.65
2023-04-14T02:53:26.256Z,55.60
2023-04-14T02:56:04.656Z,55.76
2023-04-14T02:58:37.725Z,55.80
2023-04-14T03:01:06.672Z,55.88
2023-04-14T03:03:37.757Z,55.83
2023-04-14T03:06:09.834Z,55.79
2023-04-14T03:08:38.845Z,55.79
2023-04-14T03:11:08.183Z,55.81
2023-04-14T03:13:39.091Z,55.79
2023-04-14T03:16:09.612Z,55.79
2023-04-14T03:18:42.089Z,55.71
2023-04-14T03:21:10.456Z,55.80
2023-04-14T03:23:40.491Z,55.79
2023-04-14T03:26:11.762Z,55.94
2023-04-14T03:28:42.710Z,55.94
2023-04-14T03:31:13.364Z,55.91
2023-04-14T03:33:57.263Z,55.86
2023-04-14T03:36:33.026Z,55.98
2023-04-14T03:39:03.422Z,56.10
2023-04-14T03:41:37.834Z,56.13
2023-04-14T03:44:15.544Z,56.13
2023-04-14T03:46:46.140Z,56.07
2023-04-14T03:49:20.162Z,56.00
2023-04-14T03:51:53.619Z,56.01
2023-04-14T03:54:24.082Z,56.00
2023-04-14T03:56:56.144Z,55.98
2023-04-14T03:59:27.708Z,55.94
2023-04-14T04:01:57.201Z,55.90
2023-04-14T04:04:27.492Z,55.90
2023-04-14T04:06:55.886Z,55.91
2023-04-14T04:09:24.917Z,55.73
2023-04-14T04:11:53.768Z,55.68
2023-04-14T04:14:24.787Z,55.65
2023-04-14T04:16:56.004Z,55.57
2023-04-14T04:19:26.958Z,55.74
2023-04-14T04:21:58.407Z,55.84
2023-04-14T04:24:30.307Z,55.85
2023-04-14T04:26:59.804Z,55.92
2023-04-14T04:29:28.324Z,55.88
2023-04-14T04:31:57.044Z,55.90
2023-04-14T04:34:27.852Z,55.95
2023-04-14T04:36:56.871Z,55.98
2023-04-14T04:39:25.915Z,55.97
2023-04-14T04:42:03.225Z,55.55
2023-04-14T04:44:33.179Z,55.84
2023-04-14T04:47:02.546Z,55.84
2023-04-14T04:49:32.030Z,55.97
2023-04-14T04:52:04.908Z,55.89
2023-04-14T04:54:33.013Z,55.84
2023-04-14T04:57:01.049Z,55.90
2023-04-14T04:59:29.161Z,55.99
2023-04-14T05:01:57.349Z,56.18
2023-04-14T05:04:25.589Z,56.41
2023-04-14T05:06:55.074Z,56.33
2023-04-14T05:09:23.131Z,56.26
2023-04-14T05:11:51.215Z,56.23
2023-04-14T05:14:19.254Z,56.21
2023-04-14T05:16:47.270Z,56.23
2023-04-14T05:19:15.645Z,56.25
2023-04-14T05:21:43.667Z,56.26
2023-04-14T05:24:13.092Z,56.30
2023-04-14T05:29:12.521Z,56.41
2023-04-14T05:31:40.864Z,56.23
2023-04-14T05:34:10.049Z,56.25
2023-04-14T05:36:38.073Z,56.29
2023-04-14T05:39:06.255Z,56.31
2023-04-14T05:41:35.725Z,56.32
2023-04-14T05:44:04.655Z,56.53
2023-04-14T05:46:33.353Z,56.64
2023-04-14T05:49:01.834Z,56.75
2023-04-14T05:51:30.386Z,56.88
2023-04-14T05:53:58.506Z,56.97
2023-04-14T05:56:26.897Z,57.03
2023-04-14T05:58:56.380Z,57.10
2023-04-14T06:01:24.424Z,57.20
2023-04-14T06:03:52.534Z,57.26
2023-04-14T06:06:20.886Z,57.32
2023-04-14T06:08:48.914Z,57.34
2023-04-14T06:11:16.984Z,57.44
2023-04-14T06:13:45.000Z,57.56
2023-04-14T06:16:14.404Z,57.77
2023-04-14T06:18:42.450Z,57.93
2023-04-14T06:21:11.204Z,58.16
2023-04-14T06:23:39.230Z,58.26
2023-04-14T06:26:07.391Z,58.34
2023-04-14T06:28:35.458Z,58.47
2023-04-14T06:31:03.966Z,58.52
2023-04-14T06:33:33.439Z,58.48
2023-04-14T06:36:02.586Z,58.44
2023-04-14T06:38:30.755Z,58.42
2023-04-14T06:40:58.964Z,58.39
2023-04-14T06:43:28.814Z,58.30
2023-04-14T06:45:57.193Z,58.02
2023-04-14T06:48:25.314Z,57.75
2023-04-14T06:50:56.681Z,57.22
2023-04-14T06:53:25.951Z,57.16
2023-04-14T06:56:00.529Z,56.47
2023-04-14T06:58:29.758Z,55.86
2023-04-14T07:00:58.397Z,55.65
2023-04-14T07:03:27.420Z,55.36
2023-04-14T07:06:03.907Z,54.87
2023-04-14T07:08:34.832Z,54.68
2023-04-14T07:11:04.781Z,53.92
2023-04-14T07:13:33.760Z,53.45
2023-04-14T07:16:02.272Z,52.39
2023-04-14T07:18:31.701Z,51.42
2023-04-14T07:21:01.832Z,51.36
2023-04-14T07:23:30.168Z,50.51
2023-04-14T07:25:59.672Z,49.47
2023-04-14T07:28:28.458Z,48.81
2023-04-14T07:30:56.818Z,47.38
2023-04-14T07:33:27.039Z,47.25
2023-04-14T07:36:02.777Z,46.55
2023-04-14T07:38:33.478Z,45.74
2023-04-14T07:41:04.701Z,44.54
2023-04-14T07:43:35.606Z,43.18
2023-04-14T07:46:05.435Z,43.21
2023-04-14T07:48:34.150Z,42.00
2023-04-14T07:51:03.077Z,41.38
2023-04-14T07:53:32.915Z,40.11
2023-04-14T07:56:01.566Z,40.03
2023-04-14T07:58:29.922Z,38.90
2023-04-14T08:00:58.411Z,38.56
2023-04-14T08:03:26.758Z,36.05
2023-04-14T08:05:54.965Z,35.49
2023-04-14T08:08:23.194Z,35.28
2023-04-14T08:10:52.723Z,35.89
2023-04-14T08:13:20.761Z,35.96
2023-04-14T08:15:48.867Z,34.86
2023-04-14T08:18:17.006Z,34.89
2023-04-14T08:20:45.444Z,34.48
2023-04-14T08:23:13.514Z,34.72
2023-04-14T08:25:42.283Z,34.26
2023-04-14T08:28:12.433Z,34.97
2023-04-14T08:30:41.425Z,34.81
2023-04-14T08:33:09.690Z,33.51
2023-04-14T08:35:42.469Z,35.01
2023-04-14T08:38:11.572Z,34.50
2023-04-14T08:40:41.552Z,35.15
2023-04-14T08:43:13.828Z,35.12
2023-04-14T08:45:44.697Z,33.57
2023-04-14T08:48:16.105Z,33.85
2023-04-14T08:50:49.323Z,32.33
2023-04-14T08:53:19.245Z,32.49
2023-04-14T08:55:47.923Z,33.10
2023-04-14T08:58:17.825Z,33.25
2023-04-14T09:00:46.306Z,34.47
2023-04-14T09:03:15.508Z,34.45
2023-04-14T09:05:44.761Z,32.88
2023-04-14T09:08:13.515Z,32.67
2023-04-14T09:10:42.797Z,32.13
2023-04-14T09:13:15.284Z,30.94
2023-04-14T09:15:45.117Z,32.02
2023-04-14T09:18:13.479Z,32.28
2023-04-14T09:20:42.140Z,30.42
2023-04-14T09:23:11.100Z,30.77
2023-04-14T09:25:40.517Z,30.87
2023-04-14T09:28:08.896Z,31.19
2023-04-14T09:30:37.476Z,29.48
2023-04-14T09:33:08.172Z,31.04
2023-04-14T09:35:54.397Z,30.71
2023-04-14T09:38:37.946Z,30.25
2023-04-14T09:41:07.096Z,29.83
2023-04-14T09:43:36.879Z,30.34
2023-04-14T09:46:07.073Z,32.25
2023-04-14T09:48:37.620Z,31.34
2023-04-14T09:51:09.898Z,30.06
2023-04-14T09:53:41.172Z,28.70
2023-04-14T09:56:11.110Z,28.51
2023-04-14T09:58:40.765Z,29.45
2023-04-14T10:01:13.614Z,28.61
2023-04-14T10:03:44.577Z,28.03
2023-04-14T10:06:17.253Z,27.39
2023-04-14T10:08:48.660Z,28.36
2023-04-14T10:11:18.965Z,27.71
2023-04-14T10:13:47.998Z,26.94
2023-04-14T10:16:16.988Z,27.42
2023-04-14T10:18:47.723Z,27.63
2023-04-14T10:21:17.583Z,28.11
2023-04-14T10:23:46.342Z,29.11
2023-04-14T10:26:15.012Z,27.94
2023-04-14T10:28:46.332Z,25.41
2023-04-14T10:31:20.411Z,25.45
2023-04-14T10:33:49.959Z,25.78
2023-04-14T10:36:25.488Z,25.93
2023-04-14T10:39:02.056Z,27.65
2023-04-14T10:41:46.093Z,28.62
2023-04-14T10:44:27.496Z,28.15
2023-04-14T10:46:56.694Z,28.90
2023-04-14T10:49:33.800Z,29.07
2023-04-14T10:52:03.607Z,29.78
2023-04-14T10:54:50.029Z,27.94
2023-04-14T10:57:20.664Z,28.58
2023-04-14T10:59:49.211Z,29.51
2023-04-14T11:02:25.159Z,29.23
2023-04-14T11:05:04.041Z,28.45
2023-04-14T11:07:33.460Z,29.06
2023-04-14T11:10:21.921Z,30.23
2023-04-14T11:12:57.481Z,27.00
2023-04-14T11:15:25.915Z,25.81
2023-04-14T11:17:55.185Z,25.83
2023-04-14T11:20:24.116Z,25.25
2023-04-14T11:22:54.147Z,24.97
2023-04-14T11:25:24.780Z,26.15
2023-04-14T11:27:54.730Z,26.70
2023-04-14T11:30:23.273Z,26.18
2023-04-14T11:32:53.378Z,25.88
2023-04-14T11:35:24.089Z,27.95
2023-04-14T11:37:54.916Z,24.52
2023-04-14T11:40:24.066Z,23.34
2023-04-14T11:42:58.475Z,24.79
2023-04-14T11:45:29.854Z,25.00
2023-04-14T11:47:59.924Z,26.23
2023-04-14T11:50:30.479Z,26.01
2023-04-14T11:52:59.491Z,22.92
2023-04-14T11:55:28.140Z,24.01
2023-04-14T11:57:58.162Z,23.68
2023-04-14T12:00:28.047Z,24.04
2023-04-14T12:02:56.446Z,23.62
2023-04-14T12:05:31.395Z,24.08
2023-04-14T12:08:00.327Z,22.77
2023-04-14T12:10:28.738Z,22.70
2023-04-14T12:13:02.716Z,23.27
2023-04-14T12:15:31.565Z,24.33
2023-04-14T12:18:00.355Z,23.97
2023-04-14T12:20:30.369Z,25.09
2023-04-14T12:23:03.264Z,24.83
2023-04-14T12:25:33.929Z,24.43
2023-04-14T12:28:06.300Z,23.30
2023-04-14T12:30:34.666Z,23.93
2023-04-14T12:33:09.711Z,24.11
2023-04-14T12:35:37.861Z,24.18
2023-04-14T12:38:10.886Z,24.85
2023-04-14T12:40:40.394Z,25.02
2023-04-14T12:43:09.915Z,23.17
2023-04-14T12:45:42.368Z,21.88
2023-04-14T12:48:10.633Z,20.42
2023-04-14T12:50:38.722Z,18.63
2023-04-14T12:53:26.138Z,20.00
2023-04-14T12:56:10.852Z,18.83
2023-04-14T12:58:41.867Z,18.41
2023-04-14T13:01:11.145Z,17.15
2023-04-14T13:03:41.078Z,18.14
2023-04-14T13:06:09.886Z,19.43
2023-04-14T13:08:37.887Z,20.93
2023-04-14T13:11:06.227Z,21.36
2023-04-14T13:13:34.256Z,22.11
2023-04-14T13:16:14.721Z,22.22
2023-04-14T13:18:44.818Z,23.69
2023-04-14T13:21:12.963Z,22.74
2023-04-14T13:23:41.255Z,21.82
2023-04-14T13:26:09.443Z,20.90
2023-04-14T13:28:37.791Z,20.27
2023-04-14T13:31:07.557Z,19.75
2023-04-14T13:33:35.662Z,18.74
2023-04-14T13:36:04.017Z,18.96
2023-04-14T13:38:32.291Z,19.58
2023-04-14T13:41:00.437Z,18.47
2023-04-14T13:43:28.504Z,17.41
2023-04-14T13:45:58.589Z,18.05
2023-04-14T13:48:28.447Z,16.83
2023-04-14T13:50:56.634Z,18.45
2023-04-14T13:53:24.692Z,18.73
2023-04-14T13:55:52.787Z,18.55
2023-04-14T13:58:21.367Z,17.93
2023-04-14T14:00:49.452Z,18.95
2023-04-14T14:03:17.671Z,20.70
2023-04-14T14:05:47.284Z,20.89
2023-04-14T14:08:15.887Z,18.54
2023-04-14T14:10:44.418Z,18.04
2023-04-14T14:13:12.488Z,18.53
2023-04-14T14:15:40.617Z,18.44
2023-04-14T14:18:09.228Z,18.41
2023-04-14T14:20:37.271Z,19.73
2023-04-14T14:23:06.945Z,19.01
2023-04-14T14:25:35.099Z,18.39
2023-04-14T14:28:03.872Z,17.80
2023-04-14T14:30:32.070Z,17.32
2023-04-14T14:33:00.120Z,17.46
2023-04-14T14:35:28.220Z,17.74
2023-04-14T14:37:56.280Z,18.27
2023-04-14T14:40:25.688Z,18.19
2023-04-14T14:42:53.688Z,18.54
2023-04-14T14:45:26.150Z,18.93
2023-04-14T14:47:59.453Z,18.50
2023-04-14T14:50:27.656Z,17.77
2023-04-14T14:52:56.888Z,17.74
2023-04-14T14:55:27.338Z,19.48
2023-04-14T14:57:55.403Z,19.35
2023-04-14T15:00:23.407Z,18.20
2023-04-14T15:02:51.570Z,17.95
2023-04-14T15:05:19.771Z,18.11
2023-04-14T15:07:47.790Z,20.01
2023-04-14T15:10:16.222Z,19.14
2023-04-14T15:12:45.787Z,19.50
2023-04-14T15:15:14.061Z,19.92
2023-04-14T15:17:42.101Z,19.71
2023-04-14T15:20:11.229Z,19.15
2023-04-14T15:22:39.302Z,19.47
2023-04-14T15:25:09.196Z,18.19
2023-04-14T15:27:37.558Z,18.63
2023-04-14T15:30:08.589Z,17.06
2023-04-14T15:32:36.719Z,17.47
2023-04-14T15:35:05.027Z,17.96
2023-04-14T15:37:33.045Z,19.92
2023-04-14T15:40:01.671Z,19.91
2023-04-14T15:42:29.660Z,18.60
2023-04-14T15:44:57.694Z,18.61
2023-04-14T15:47:27.121Z,17.35
2023-04-14T15:50:09.540Z,19.26
2023-04-14T15:52:38.993Z,19.41
2023-04-14T15:55:08.541Z,22.69
2023-04-14T15:57:37.168Z,57.40
2023-04-14T16:00:07.626Z,56.80
2023-04-14T16:02:45.860Z,58.08
2023-04-14T16:05:14.343Z,58.35
2023-04-14T16:07:43.714Z,57.74
2023-04-14T16:10:12.266Z,56.37
2023-04-14T16:12:40.755Z,57.28
2023-04-14T16:15:09.564Z,57.84
2023-04-14T16:17:37.654Z,59.39
2023-04-14T16:20:08.192Z,59.49
2023-04-14T16:22:37.028Z,59.29
2023-04-14T16:25:05.823Z,57.82
2023-04-14T16:27:34.057Z,57.68
2023-04-14T16:30:02.759Z,58.74
2023-04-14T16:32:31.187Z,59.12
2023-04-14T16:34:59.197Z,58.26
2023-04-14T16:37:28.892Z,54.68
2023-04-14T16:39:57.531Z,50.40
2023-04-14T16:42:26.337Z,52.00
2023-04-14T16:44:54.657Z,50.78
2023-04-14T16:47:23.649Z,45.95
2023-04-14T16:49:51.884Z,49.83
2023-04-14T16:52:20.048Z,45.04
2023-04-14T16:54:49.483Z,45.41
2023-04-14T16:57:17.570Z,46.23
2023-04-14T16:59:46.239Z,43.35
2023-04-14T17:02:14.459Z,42.29
2023-04-14T17:04:42.855Z,45.70
2023-04-14T17:07:11.221Z,43.97
2023-04-14T17:09:39.234Z,46.06
2023-04-14T17:12:08.723Z,45.71
2023-04-14T17:14:37.256Z,43.66
2023-04-14T17:17:05.481Z,41.83
2023-04-14T17:19:34.240Z,43.59
2023-04-14T17:22:02.313Z,43.34
2023-04-14T17:24:30.962Z,42.39
2023-04-14T17:27:00.516Z,40.85
2023-04-14T17:29:30.016Z,42.48
2023-04-14T17:31:58.143Z,44.19
2023-04-14T17:34:26.315Z,41.25
2023-04-14T17:36:55.976Z,40.33
2023-04-14T17:39:26.801Z,41.84
2023-04-14T17:41:56.237Z,40.55
2023-04-14T17:44:31.906Z,41.06
2023-04-14T17:47:01.063Z,41.63
2023-04-14T17:49:29.435Z,39.94
2023-04-14T17:51:58.069Z,40.56
2023-04-14T17:54:27.246Z,40.59
2023-04-14T17:56:55.304Z,40.23
2023-04-14T17:59:23.524Z,40.03
2023-04-14T18:01:53.456Z,39.84
2023-04-14T18:04:21.611Z,40.78
2023-04-14T18:06:50.143Z,40.49
2023-04-14T18:09:18.193Z,41.39
2023-04-14T18:11:46.338Z,40.86
2023-04-14T18:14:14.442Z,40.94
2023-04-14T18:16:42.527Z,41.29
2023-04-14T18:19:11.950Z,41.08
2023-04-14T18:21:41.141Z,42.49
2023-04-14T18:26:41.294Z,42.48
2023-04-14T18:29:09.358Z,41.72
2023-04-14T18:31:38.066Z,42.84
2023-04-14T18:34:09.308Z,42.86
2023-04-14T18:36:38.796Z,43.22
2023-04-14T18:39:07.916Z,42.87
2023-04-14T18:41:36.217Z,43.20
2023-04-14T18:44:04.473Z,43.53
2023-04-14T18:46:32.614Z,43.64
2023-04-14T18:49:00.946Z,44.14
2023-04-14T18:51:29.180Z,44.20
2023-04-14T18:53:58.749Z,44.45
2023-04-14T18:56:28.057Z,44.64
2023-04-14T18:58:57.498Z,45.02
2023-04-14T19:01:25.712Z,44.81
2023-04-14T19:03:55.123Z,45.14
2023-04-14T19:06:23.787Z,45.64
2023-04-14T19:08:51.816Z,45.93
2023-04-14T19:11:21.706Z,46.14
2023-04-14T19:13:49.754Z,46.22
2023-04-14T19:16:17.867Z,46.55
2023-04-14T19:18:46.121Z,46.51
2023-04-14T19:21:14.174Z,46.44
2023-04-14T19:23:42.391Z,46.47
2023-04-14T19:26:11.601Z,46.70
2023-04-14T19:28:42.480Z,46.69
2023-04-14T19:31:10.762Z,46.76
2023-04-14T19:33:41.677Z,46.88
2023-04-14T19:36:14.215Z,46.72
2023-04-14T19:38:42.633Z,47.17
2023-04-14T19:41:10.732Z,47.10
2023-04-14T19:43:40.238Z,47.09
2023-04-14T19:46:09.595Z,47.18
2023-04-14T19:48:37.667Z,47.27
2023-04-14T19:51:05.740Z,47.38
2023-04-14T19:53:34.469Z,47.34
2023-04-14T19:56:05.475Z,47.34
2023-04-14T19:58:33.797Z,47.17
2023-04-14T20:01:03.244Z,47.11
2023-04-14T20:03:33.850Z,47.17
2023-04-14T20:06:03.212Z,47.23
2023-04-14T20:08:32.317Z,47.22
2023-04-14T20:11:00.406Z,47.16
2023-04-14T20:13:31.243Z,47.34
2023-04-14T20:15:59.303Z,47.40
2023-04-14T20:18:28.986Z,47.58
2023-04-14T20:20:57.231Z,47.79
2023-04-14T20:23:25.654Z,47.90
2023-04-14T20:25:54.723Z,48.05
2023-04-14T20:28:25.739Z,48.18
2023-04-14T20:31:01.309Z,48.44
2023-04-14T20:33:31.023Z,48.31
2023-04-14T20:36:01.760Z,48.35
2023-04-14T20:38:30.235Z,48.57
2023-04-14T20:40:58.446Z,48.69
2023-04-14T20:43:32.548Z,48.70
2023-04-14T20:46:00.675Z,48.91
2023-04-14T20:48:30.725Z,49.21
2023-04-14T20:50:59.801Z,49.39
2023-04-14T20:53:30.024Z,49.44
2023-04-14T20:55:58.218Z,49.47
2023-04-14T20:58:26.292Z,49.53
2023-04-14T21:00:54.367Z,49.61
2023-04-14T21:03:23.914Z,49.89
2023-04-14T21:05:53.644Z,50.11
2023-04-14T21:08:22.272Z,50.13
2023-04-14T21:11:16.157Z,50.19
2023-04-14T21:15:27.170Z,50.28
2023-04-14T21:16:27.576Z,50.22
2023-04-14T21:18:55.718Z,50.41
2023-04-14T21:21:25.250Z,50.49
2023-04-14T21:23:53.279Z,50.53
2023-04-14T21:26:21.965Z,50.83
2023-04-14T21:28:50.065Z,51.07
2023-04-14T21:31:18.479Z,50.98
2023-04-14T21:33:47.093Z,50.97
2023-04-14T21:36:15.755Z,50.88
2023-04-14T21:38:45.211Z,50.85
2023-04-14T21:41:13.327Z,51.10
2023-04-14T21:43:41.767Z,51.14
2023-04-14T21:46:10.089Z,51.30
2023-04-14T21:48:38.256Z,51.44
2023-04-14T21:51:06.408Z,51.53
2023-04-14T21:53:34.638Z,51.47
2023-04-14T21:56:09.948Z,51.37
2023-04-14T21:58:39.680Z,51.49
2023-04-14T22:01:09.632Z,51.50
2023-04-14T22:03:40.405Z,51.56
2023-04-14T22:06:10.082Z,51.67
2023-04-14T22:08:39.178Z,51.75
2023-04-14T22:11:08.807Z,51.84
2023-04-14T22:13:36.912Z,52.01
2023-04-14T22:16:05.239Z,52.07
2023-04-14T22:18:33.371Z,52.06
2023-04-14T22:21:01.541Z,52.08
2023-04-14T22:23:29.642Z,52.11
2023-04-14T22:25:58.266Z,52.23
2023-04-14T22:28:28.027Z,52.32
2023-04-14T22:30:56.112Z,52.44
2023-04-14T22:33:24.181Z,52.45
2023-04-14T22:35:52.248Z,52.49
2023-04-14T22:38:20.289Z,52.54
2023-04-14T22:40:50.401Z,52.63
2023-04-14T22:43:20.322Z,52.72
2023-04-14T22:45:49.830Z,52.80
2023-04-14T22:48:17.960Z,52.93
2023-04-14T22:50:46.105Z,53.08
2023-04-14T22:53:14.116Z,53.26
2023-04-14T22:55:43.470Z,53.40
2023-04-14T22:58:16.350Z,53.42
2023-04-14T23:00:45.212Z,53.47
2023-04-14T23:03:15.586Z,53.59
2023-04-14T23:05:44.706Z,53.61
2023-04-14T23:08:12.806Z,53.68
2023-04-14T23:10:40.824Z,53.76
2023-04-14T23:13:09.401Z,53.72
2023-04-14T23:15:37.446Z,53.77
2023-04-14T23:18:05.614Z,53.94
2023-04-14T23:20:35.190Z,53.98
2023-04-14T23:23:03.542Z,53.94
2023-04-14T23:25:31.619Z,53.99
2023-04-14T23:27:59.598Z,53.97
2023-04-14T23:30:27.685Z,54.10
2023-04-14T23:32:55.740Z,54.12
2023-04-14T23:35:23.988Z,54.15
2023-04-14T23:37:53.443Z,54.23
2023-04-14T23:40:21.657Z,54.33
2023-04-14T23:42:49.907Z,54.66
2023-04-14T23:45:18.064Z,54.73
2023-04-14T23:47:46.447Z,54.82
2023-04-14T23:50:14.557Z,54.84
2023-04-14T23:52:44.036Z,54.83
2023-04-14T23:55:13.456Z,54.77
2023-04-14T23:57:42.082Z,54.68
